Aviation Digital Data Service (ADDS)

Output produced by METARs form (0243 UTC 24 July 2017)
found at http://www.aviationweather.gov/adds/metars/
 
DXXX 240200Z 24012KT 8000 -RA SCT010 BKN020 24/24 Q1015 NOSIG
TAF DXXX 232300Z 2400/2506 26006KT 9999 SCT008 
     TEMPO 2406/2410 BKN010 
     PROB30 4000 RA 
     BECMG 2408/2410 20012KT 
     PROB40 
     TEMPO 2414/2419 TS BKN010 FEW020CB
       
DXNG 240000Z 20005KT 9999 BKN005 23/21 Q1018
TAF DXNG 232300Z 2400/2424 VRB05KT 9999 SCT008 FEW016CB 
     PROB30 
     TEMPO 2400/2404 4000 RA 
     BECMG 2404/2406 BKN008 
     TEMPO 2414/2420 TS BKN008 FEW018CB